Time;durP1;ratioP1;P1;durP2;ratioP2;P2;SDS_P1;SDS_P2;PMS_P1;PMS_P2;Temp;Humidity;BMP_temperature;BMP_pressure;BME280_temperature;BME280_humidity;BME280_pressure;Samples;Min_cycle;Max_cycle;Signal;HPM_P1;HPM_P2
2022/02/01 00:00:33;;;;;;;0.20;0.10;;;;;;;5.77;100.00;100433.78;5033238;28;20468;-50
2022/02/01 00:03:01;;;;;;;0.20;0.10;;;;;;;5.76;100.00;100454.88;5020210;28;20484;-51
2022/02/01 00:05:38;;;;;;;0.20;0.10;;;;;;;5.70;100.00;100458.41;5033420;28;20452;-50
2022/02/01 00:13:14;;;;;;;0.20;0.10;;;;;;;5.77;100.00;100467.19;5032987;28;20957;-51
2022/02/01 00:37:37;;;;;;;0.20;0.10;;;;;;;5.56;100.00;100498.03;5010052;28;20834;-51
2022/02/01 00:40:10;;;;;;;0.20;0.10;;;;;;;5.68;100.00;100491.84;5032867;28;20984;-50
2022/02/01 00:42:37;;;;;;;0.20;0.10;;;;;;;5.75;100.00;100505.84;5032780;28;20499;-51
2022/02/01 00:45:05;;;;;;;0.20;0.10;;;;;;;5.74;100.00;100512.00;5019945;28;20448;-51
2022/02/01 00:47:31;;;;;;;0.20;0.10;;;;;;;5.70;100.00;100497.97;5006588;28;20577;-51
2022/02/01 00:49:58;;;;;;;0.20;0.10;;;;;;;5.63;100.00;100499.78;5032492;28;20518;-51
2022/02/01 00:52:27;;;;;;;0.20;0.13;;;;;;;5.68;99.89;100497.13;5018960;28;20459;-50
2022/02/01 00:54:54;;;;;;;0.20;0.10;;;;;;;5.74;100.00;100496.19;5032575;28;20535;-50
2022/02/01 00:57:20;;;;;;;0.20;0.10;;;;;;;5.55;99.85;100506.84;5032587;28;20471;-50
2022/02/01 00:59:47;;;;;;;0.83;0.83;;;;;;;5.59;99.04;100505.06;5032282;28;20503;-51
2022/02/01 01:02:14;;;;;;;0.20;0.10;;;;;;;5.54;99.61;100517.41;5032488;28;20857;-50
2022/02/01 01:04:41;;;;;;;0.20;0.10;;;;;;;5.62;99.34;100523.53;5032305;28;20498;-51
2022/02/01 01:07:08;;;;;;;0.37;0.37;;;;;;;5.49;97.96;100517.44;5032338;28;20545;-50
2022/02/01 01:09:34;;;;;;;0.20;0.10;;;;;;;5.58;97.21;100522.63;5031173;28;20889;-51
2022/02/01 01:12:01;;;;;;;0.20;0.10;;;;;;;5.58;97.71;100519.13;5020445;28;20948;-50
2022/02/01 01:43:58;;;;;;;0.20;0.10;;;;;;;5.52;91.99;100578.03;5028270;28;20448;-51
2022/02/01 01:54:28;;;;;;;0.20;0.10;;;;;;;5.28;90.03;100629.06;5031941;28;20448;-51
2022/02/01 01:56:56;;;;;;;0.20;0.10;;;;;;;5.23;89.73;100643.13;5031622;28;20486;-50
2022/02/01 01:59:24;;;;;;;0.20;0.10;;;;;;;5.27;89.27;100647.50;5014829;28;20474;-50
2022/02/01 02:01:51;;;;;;;0.20;0.10;;;;;;;5.37;90.71;100638.72;5031832;28;20452;-51
2022/02/01 02:04:19;;;;;;;0.20;0.10;;;;;;;5.32;90.37;100625.53;5031994;28;20462;-51
2022/02/01 02:06:45;;;;;;;0.20;0.10;;;;;;;5.35;89.96;100637.84;5032954;28;20487;-51
2022/02/01 02:09:13;;;;;;;0.93;0.50;;;;;;;5.33;90.55;100648.38;5035437;28;20506;-51
2022/02/01 02:14:23;;;;;;;0.20;0.10;;;;;;;5.27;89.30;100672.09;5035418;28;20857;-50
2022/02/01 02:16:50;;;;;;;0.20;0.10;;;;;;;5.27;89.08;100684.41;5035462;28;20948;-50
2022/02/01 02:19:18;;;;;;;0.20;0.10;;;;;;;5.16;89.99;100678.25;5035192;28;20478;-51
2022/02/01 02:21:56;;;;;;;0.20;0.10;;;;;;;5.26;89.85;100680.91;5035245;28;20448;-51
2022/02/01 02:24:29;;;;;;;0.20;0.10;;;;;;;5.16;90.18;100673.88;5035176;28;20849;-51
2022/02/01 02:26:56;;;;;;;0.20;0.10;;;;;;;5.24;89.86;100681.78;5035119;28;20527;-51
2022/02/01 02:29:23;;;;;;;0.20;0.10;;;;;;;5.22;90.33;100678.28;5021927;28;20467;-51
2022/02/01 02:31:50;;;;;;;0.20;0.10;;;;;;;5.29;90.34;100669.47;5035109;28;20968;-51
2022/02/01 02:34:18;;;;;;;0.20;0.10;;;;;;;5.26;90.85;100667.72;5035071;28;20447;-51
2022/02/01 02:36:49;;;;;;;0.20;0.10;;;;;;;5.05;90.93;100672.97;5017467;28;20444;-51
2022/02/01 02:47:04;;;;;;;0.20;0.10;;;;;;;5.00;91.29;100704.59;5030586;28;20523;-51
2022/02/01 02:49:31;;;;;;;0.20;0.10;;;;;;;5.25;90.97;100688.81;5034673;28;20520;-51
2022/02/01 02:51:57;;;;;;;0.20;0.10;;;;;;;5.05;92.44;100686.16;5020104;28;20560;-51
2022/02/01 02:54:26;;;;;;;0.20;0.10;;;;;;;5.00;91.18;100674.75;5034816;28;20502;-51
2022/02/01 02:57:02;;;;;;;0.20;0.13;;;;;;;5.10;91.60;100684.41;5034529;28;20482;-51
2022/02/01 02:59:29;;;;;;;0.20;0.10;;;;;;;5.29;90.10;100691.44;5034471;28;20495;-51
2022/02/01 03:01:57;;;;;;;0.20;0.10;;;;;;;5.03;90.70;100709.00;5034716;28;20514;-51
2022/02/01 03:04:29;;;;;;;0.20;0.10;;;;;;;5.20;89.06;100690.53;5035051;28;20573;-51
2022/02/01 03:06:57;;;;;;;0.20;0.10;;;;;;;5.06;90.32;100674.75;5034337;28;20545;-51
2022/02/01 03:09:24;;;;;;;0.20;0.10;;;;;;;4.98;90.08;100671.25;5034432;28;20503;-51
2022/02/01 03:11:53;;;;;;;0.20;0.10;;;;;;;5.04;90.78;100669.47;5034135;28;21286;-52
2022/02/01 03:19:49;;;;;;;0.20;0.10;;;;;;;5.08;91.96;100704.63;5033182;28;20992;-51
2022/02/01 03:22:17;;;;;;;0.20;0.10;;;;;;;5.15;92.03;100698.47;5034136;28;20452;-51
2022/02/01 03:24:44;;;;;;;0.20;0.10;;;;;;;5.17;93.05;100707.25;5034188;28;20483;-51
2022/02/01 03:27:12;;;;;;;0.20;0.10;;;;;;;5.01;93.95;100701.09;5034007;28;20526;-51
2022/02/01 03:29:38;;;;;;;0.20;0.10;;;;;;;5.00;94.32;100704.59;5033783;28;21007;-51
2022/02/01 03:32:05;;;;;;;0.20;0.10;;;;;;;5.00;95.66;100720.41;5034223;28;20500;-51
2022/02/01 03:34:32;;;;;;;0.20;0.10;;;;;;;5.15;96.19;100711.63;5033745;28;20829;-51
2022/02/01 03:36:59;;;;;;;0.20;0.10;;;;;;;4.99;95.58;100723.94;5033679;28;20479;-51
2022/02/01 03:39:26;;;;;;;0.20;0.10;;;;;;;5.30;94.54;100729.19;5033758;28;20471;-51
2022/02/01 03:41:52;;;;;;;0.20;0.10;;;;;;;5.35;93.94;100724.84;5016154;28;20475;-51
2022/02/01 03:44:20;;;;;;;0.20;0.10;;;;;;;5.03;94.96;100730.06;5026967;28;20448;-51
2022/02/01 03:47:08;;;;;;;0.20;0.10;;;;;;;4.96;95.50;100736.22;5027308;28;20965;-51
2022/02/01 03:49:36;;;;;;;0.20;0.10;;;;;;;4.93;95.23;100747.59;5033323;28;20514;-51
2022/02/01 03:52:04;;;;;;;0.20;0.20;;;;;;;4.95;95.74;100737.09;5028546;28;20542;-51
2022/02/01 03:54:32;;;;;;;0.20;0.10;;;;;;;5.15;94.79;100737.97;5033730;28;20681;-51
2022/02/01 03:57:00;;;;;;;0.20;0.10;;;;;;;4.94;95.97;100730.94;5015733;28;20846;-51
2022/02/01 03:59:27;;;;;;;0.20;0.10;;;;;;;4.96;94.95;100736.22;5033423;28;21030;-51
2022/02/01 04:01:58;;;;;;;0.20;0.10;;;;;;;5.06;94.30;100743.22;5033077;28;20945;-52
2022/02/01 04:04:31;;;;;;;0.37;0.20;;;;;;;5.30;93.27;100731.84;5033281;28;20456;-51
2022/02/01 04:06:58;;;;;;;0.20;0.20;;;;;;;5.05;94.18;100742.34;5033054;28;20518;-51
2022/02/01 04:09:26;;;;;;;0.20;0.10;;;;;;;4.98;94.35;100740.59;5033325;28;20472;-51
2022/02/01 04:11:55;;;;;;;0.20;0.10;;;;;;;4.94;95.15;100727.44;5007445;28;20448;-51
2022/02/01 04:14:26;;;;;;;0.20;0.13;;;;;;;4.89;94.88;100723.91;5032865;28;20678;-52
2022/02/01 04:16:53;;;;;;;0.80;0.57;;;;;;;4.95;94.89;100705.50;5033488;28;20443;-52
2022/02/01 04:19:20;;;;;;;0.20;0.10;;;;;;;4.98;94.87;100701.09;5032794;28;20897;-52
2022/02/01 04:22:05;;;;;;;0.20;0.10;;;;;;;5.18;93.93;100701.09;5033126;28;20455;-52
2022/02/01 04:24:35;;;;;;;0.20;0.10;;;;;;;5.22;93.53;100702.88;5032869;28;20451;-52
2022/02/01 04:27:03;;;;;;;0.20;0.10;;;;;;;4.93;93.63;100718.63;5033147;28;20487;-52
2022/02/01 04:29:30;;;;;;;0.20;0.10;;;;;;;5.08;94.09;100725.69;5032692;28;20455;-52
2022/02/01 04:31:56;;;;;;;0.20;0.10;;;;;;;5.01;94.23;100737.09;5033220;28;20532;-52
2022/02/01 04:34:23;;;;;;;0.20;0.10;;;;;;;4.86;94.19;100752.88;5033066;28;20455;-52
2022/02/01 04:36:50;;;;;;;0.20;0.10;;;;;;;4.93;93.98;100752.00;5032742;28;20448;-52
2022/02/01 04:39:17;;;;;;;0.20;0.10;;;;;;;4.93;94.46;100746.72;5032506;28;20494;-51
2022/02/01 04:41:44;;;;;;;0.20;0.10;;;;;;;4.88;94.32;100738.81;5033070;28;20451;-52
2022/02/01 04:44:11;;;;;;;0.20;0.10;;;;;;;5.05;94.96;100723.03;5027251;28;20499;-53
2022/02/01 04:46:39;;;;;;;0.20;0.10;;;;;;;4.91;94.50;100738.81;5025512;28;20458;-52
2022/02/01 04:49:09;;;;;;;0.20;0.10;;;;;;;4.94;93.51;100740.63;5033208;28;20500;-49
2022/02/01 04:51:36;;;;;;;0.20;0.10;;;;;;;5.06;92.81;100743.22;5027360;28;20457;-48
2022/02/01 04:54:03;;;;;;;0.20;0.10;;;;;;;5.00;93.40;100743.25;5006960;28;21015;-50
2022/02/01 04:56:30;;;;;;;0.20;0.13;;;;;;;5.12;92.88;100739.75;5032643;28;20451;-48
2022/02/01 04:58:57;;;;;;;0.20;0.10;;;;;;;4.83;93.63;100730.06;5032412;28;20886;-49
2022/02/01 05:01:34;;;;;;;0.20;0.10;;;;;;;4.91;93.20;100738.81;5032449;28;20456;-49
2022/02/01 05:04:01;;;;;;;0.20;0.10;;;;;;;4.84;93.83;100717.75;5032539;28;20451;-49
2022/02/01 05:06:28;;;;;;;0.20;0.10;;;;;;;4.80;94.15;100716.88;5032327;28;20451;-49
2022/02/01 05:08:55;;;;;;;0.20;0.10;;;;;;;4.92;92.81;100726.53;5032523;28;20569;-49
2022/02/01 05:11:22;;;;;;;0.20;0.10;;;;;;;4.81;93.53;100725.66;5032522;28;20505;-49
2022/02/01 05:16:46;;;;;;;0.20;0.10;;;;;;;4.83;93.25;100730.06;5032305;28;20444;-48
2022/02/01 05:19:23;;;;;;;0.20;0.10;;;;;;;4.86;93.77;100722.16;5032156;28;20990;-48
2022/02/01 05:21:51;;;;;;;0.20;0.10;;;;;;;4.78;93.54;100723.88;5032513;28;20454;-49
2022/02/01 05:24:20;;;;;;;0.20;0.10;;;;;;;4.69;94.34;100726.50;5032331;28;20452;-49
2022/02/01 05:26:47;;;;;;;0.20;0.10;;;;;;;4.62;94.49;100725.59;5032268;28;20452;-48
2022/02/01 05:29:13;;;;;;;0.20;0.10;;;;;;;4.82;94.72;100714.25;5031941;28;20988;-49
2022/02/01 05:31:40;;;;;;;0.20;0.10;;;;;;;4.87;93.83;100712.50;5032250;28;20473;-49
2022/02/01 05:34:07;;;;;;;0.20;0.10;;;;;;;4.82;95.17;100696.69;5032022;28;20845;-49
2022/02/01 05:36:33;;;;;;;0.20;0.10;;;;;;;4.82;94.56;100706.34;5032306;28;21083;-49
2022/02/01 05:39:00;;;;;;;0.20;0.10;;;;;;;4.89;94.76;100706.34;5032112;28;20495;-49
2022/02/01 05:41:28;;;;;;;0.60;0.60;;;;;;;4.71;93.82;100714.22;5033214;28;20483;-49
2022/02/01 05:43:54;;;;;;;0.20;0.10;;;;;;;4.87;94.35;100716.00;5032364;28;20447;-51
2022/02/01 05:46:22;;;;;;;0.20;0.10;;;;;;;4.78;93.84;100736.16;5027127;28;20501;-49
2022/02/01 05:48:49;;;;;;;0.20;0.10;;;;;;;4.65;94.48;100730.00;5035747;28;20581;-49
2022/02/01 05:51:15;;;;;;;0.20;0.10;;;;;;;4.65;94.57;100730.00;5033481;28;20475;-49
2022/02/01 05:53:42;;;;;;;0.20;0.10;;;;;;;4.73;94.08;100728.28;5033473;28;20527;-49
2022/02/01 05:56:09;;;;;;;0.20;0.10;;;;;;;4.79;94.42;100730.91;5035907;28;20910;-49
2022/02/01 05:58:35;;;;;;;0.20;0.10;;;;;;;4.69;95.07;100742.31;5030932;28;20855;-48
2022/02/01 06:01:02;;;;;;;0.20;0.10;;;;;;;4.77;94.76;100743.19;5027546;28;20531;-49
2022/02/01 06:03:29;;;;;;;0.20;0.10;;;;;;;4.86;94.17;100730.06;5035599;28;20447;-51
2022/02/01 06:05:56;;;;;;;0.20;0.10;;;;;;;4.66;94.66;100727.41;5036231;28;20451;-49
2022/02/01 06:08:28;;;;;;;0.20;0.10;;;;;;;4.66;93.94;100735.28;5035630;28;20697;-49
2022/02/01 06:10:54;;;;;;;0.20;0.10;;;;;;;4.74;94.88;100744.06;5035879;28;20490;-49
2022/02/01 06:13:21;;;;;;;0.20;0.10;;;;;;;4.66;94.43;100743.19;5035932;28;20983;-49
2022/02/01 06:15:47;;;;;;;0.20;0.10;;;;;;;4.72;94.73;100743.19;5036635;28;20502;-49
2022/02/01 06:18:14;;;;;;;0.20;0.10;;;;;;;4.56;95.01;100756.31;5037656;28;20447;-49
2022/02/01 06:20:41;;;;;;;0.20;0.10;;;;;;;4.64;95.52;100775.63;5037483;28;20519;-49
2022/02/01 06:23:17;;;;;;;1.23;1.13;;;;;;;4.65;95.51;100788.78;5039556;28;20482;-49
2022/02/01 06:25:49;;;;;;;0.20;0.10;;;;;;;4.73;95.49;100773.03;5040139;28;20440;-49
2022/02/01 06:28:17;;;;;;;0.20;0.10;;;;;;;4.62;95.65;100775.63;5037119;28;20523;-49
2022/02/01 06:30:44;;;;;;;0.20;0.10;;;;;;;4.56;96.53;100772.09;5035224;28;20506;-49
2022/02/01 06:33:12;;;;;;;0.20;0.10;;;;;;;4.49;97.59;100771.19;5035308;28;20480;-48
2022/02/01 06:35:39;;;;;;;0.20;0.10;;;;;;;4.73;97.17;100765.13;5034879;28;20883;-48
2022/02/01 06:38:07;;;;;;;0.20;0.20;;;;;;;4.51;97.71;100769.44;5034938;28;20522;-49
2022/02/01 06:40:34;;;;;;;0.20;0.10;;;;;;;4.69;97.60;100771.28;5034743;28;20498;-48
2022/02/01 06:43:02;;;;;;;0.20;0.10;;;;;;;4.57;97.95;100763.34;5035102;28;20956;-49
2022/02/01 06:45:29;;;;;;;0.40;0.40;;;;;;;4.50;99.04;100772.94;5021736;28;20478;-49
2022/02/01 06:47:56;;;;;;;0.20;0.10;;;;;;;4.56;98.95;100770.34;5034788;28;20515;-49
2022/02/01 06:50:23;;;;;;;0.20;0.20;;;;;;;4.61;99.84;100749.28;5034627;28;21038;-49
2022/02/01 06:52:58;;;;;;;0.20;0.10;;;;;;;4.62;100.00;100740.53;5029583;28;20455;-48
2022/02/01 06:55:36;;;;;;;0.20;0.10;;;;;;;4.62;100.00;100736.13;5034807;28;20493;-48
2022/02/01 06:58:03;;;;;;;0.20;0.10;;;;;;;4.68;100.00;100720.38;5034800;28;20536;-49
2022/02/01 07:00:31;;;;;;;0.20;0.10;;;;;;;4.80;100.00;100722.16;5017112;28;20472;-49
2022/02/01 07:02:58;;;;;;;0.20;0.10;;;;;;;4.79;100.00;100720.38;5034524;28;20447;-51
2022/02/01 07:05:24;;;;;;;0.20;0.10;;;;;;;4.73;100.00;100704.56;5034626;28;20488;-48
2022/02/01 07:07:51;;;;;;;0.20;0.10;;;;;;;4.68;100.00;100714.22;5034646;28;20527;-49
2022/02/01 07:10:18;;;;;;;0.20;0.10;;;;;;;4.67;100.00;100707.22;5034597;28;20504;-48
2022/02/01 07:12:45;;;;;;;0.20;0.10;;;;;;;4.65;100.00;100706.28;5034500;28;20452;-48
2022/02/01 07:15:12;;;;;;;0.20;0.10;;;;;;;4.55;100.00;100718.59;5034591;28;20475;-48
2022/02/01 07:17:53;;;;;;;0.20;0.10;;;;;;;4.65;100.00;100735.25;5034079;28;20495;-48
2022/02/01 07:20:21;;;;;;;0.20;0.10;;;;;;;4.57;100.00;100735.25;5024759;28;20500;-49
2022/02/01 07:22:49;;;;;;;0.20;0.10;;;;;;;4.54;100.00;100732.63;5033286;28;20479;-48
2022/02/01 07:25:24;;;;;;;0.20;0.10;;;;;;;4.54;100.00;100724.72;5034285;28;20487;-48
2022/02/01 07:27:52;;;;;;;0.20;0.20;;;;;;;4.55;100.00;100723.84;5034058;28;20491;-48
2022/02/01 07:30:23;;;;;;;0.20;0.10;;;;;;;4.57;100.00;100727.34;5033883;28;20992;-49
2022/02/01 07:32:51;;;;;;;0.20;0.10;;;;;;;4.61;100.00;100723.84;5033985;28;20505;-48
2022/02/01 07:35:20;;;;;;;0.20;0.10;;;;;;;4.75;100.00;100715.97;5034169;28;20884;-52
2022/02/01 07:37:46;;;;;;;0.20;0.13;;;;;;;4.67;100.00;100710.72;5010884;28;20451;-49
2022/02/01 07:40:13;;;;;;;0.20;0.10;;;;;;;4.78;100.00;100707.19;5035559;28;20854;-49
2022/02/01 07:42:40;;;;;;;0.20;0.10;;;;;;;4.52;100.00;100709.78;5034440;28;20451;-48
2022/02/01 07:45:10;;;;;;;0.20;0.10;;;;;;;4.61;100.00;100728.25;5020729;28;20472;-48
2022/02/01 07:47:37;;;;;;;0.20;0.10;;;;;;;4.85;100.00;100720.41;5009002;28;20454;-48
2022/02/01 07:50:05;;;;;;;0.20;0.10;;;;;;;4.75;100.00;100718.63;5033517;28;20484;-49
2022/02/01 07:52:32;;;;;;;0.20;0.10;;;;;;;4.92;100.00;100719.50;5028327;28;20498;-50
2022/02/01 07:54:58;;;;;;;0.20;0.10;;;;;;;4.82;100.00;100728.28;5033554;28;20498;-49
2022/02/01 07:57:26;;;;;;;0.20;0.10;;;;;;;4.79;100.00;100715.09;5033601;28;21007;-48
2022/02/01 07:59:53;;;;;;;0.20;0.10;;;;;;;4.77;100.00;100722.13;5033470;28;20468;-48
2022/02/01 08:02:24;;;;;;;0.20;0.10;;;;;;;4.93;100.00;100715.13;5033688;28;21018;-50
2022/02/01 08:05:12;;;;;;;0.20;0.10;;;;;;;5.16;99.12;100707.25;5032705;28;20451;-48
2022/02/01 08:07:38;;;;;;;0.20;0.10;;;;;;;4.98;99.56;100709.00;5033175;28;20505;-49
2022/02/01 08:10:09;;;;;;;0.20;0.20;;;;;;;5.14;98.83;100712.50;5033535;28;20529;-50
2022/02/01 08:17:57;;;;;;;0.20;0.10;;;;;;;5.20;98.55;100706.34;5033260;28;20448;-49
2022/02/01 08:20:35;;;;;;;0.20;0.10;;;;;;;5.30;96.52;100703.72;5032924;28;20984;-50
2022/02/01 08:23:02;;;;;;;0.20;0.10;;;;;;;5.28;97.76;100691.44;5033126;28;20448;-50
2022/02/01 08:25:31;;;;;;;0.50;0.50;;;;;;;5.34;96.87;100676.50;5033144;28;20459;-49
2022/02/01 08:28:01;;;;;;;0.20;0.20;;;;;;;5.44;96.95;100692.28;5033178;28;20479;-49
2022/02/01 08:30:28;;;;;;;0.20;0.10;;;;;;;5.32;96.44;100682.63;5034043;28;20499;-49
2022/02/01 08:32:55;;;;;;;0.30;0.20;;;;;;;5.51;96.45;100688.78;5032994;28;20444;-49
2022/02/01 08:35:21;;;;;;;0.20;0.10;;;;;;;5.43;95.34;100699.31;5033235;28;20452;-48
2022/02/01 08:38:08;;;;;;;0.20;0.10;;;;;;;5.56;95.57;100693.16;5012684;28;20444;-49
2022/02/01 08:40:46;;;;;;;0.20;0.20;;;;;;;5.60;95.67;100688.75;5032890;28;20471;-48
2022/02/01 08:43:14;;;;;;;0.20;0.10;;;;;;;5.38;95.32;100693.19;5033981;28;20944;-49
2022/02/01 08:45:41;;;;;;;0.20;0.10;;;;;;;5.54;95.62;100697.56;5002500;28;20447;-49
2022/02/01 08:48:07;;;;;;;0.30;0.20;;;;;;;5.67;94.88;100689.63;5032912;28;20539;-50
2022/02/01 08:50:36;;;;;;;0.20;0.20;;;;;;;5.77;94.83;100686.09;5032249;28;20508;-49
2022/02/01 08:53:19;;;;;;;0.20;0.10;;;;;;;5.76;94.27;100689.63;5027028;28;20828;-50
2022/02/01 08:58:24;;;;;;;0.20;0.10;;;;;;;5.63;94.50;100694.91;5032692;28;20440;-49
2022/02/01 09:00:52;;;;;;;0.20;0.10;;;;;;;5.68;94.19;100686.97;5032860;28;20451;-49
2022/02/01 09:03:19;;;;;;;0.20;0.10;;;;;;;5.72;94.59;100677.28;5032523;28;20454;-49
2022/02/01 09:05:51;;;;;;;0.20;0.20;;;;;;;5.62;93.53;100665.91;5032692;28;20558;-49
2022/02/01 09:08:19;;;;;;;0.20;0.10;;;;;;;5.74;93.66;100655.31;5032302;28;20602;-49
2022/02/01 09:10:46;;;;;;;0.20;0.10;;;;;;;5.77;94.08;100659.72;5032085;28;20895;-49
2022/02/01 09:13:13;;;;;;;0.20;0.10;;;;;;;5.72;92.18;100658.84;5032352;28;20482;-50
2022/02/01 09:15:40;;;;;;;0.20;0.10;;;;;;;5.62;92.50;100648.34;5032307;28;20490;-49
2022/02/01 09:18:07;;;;;;;0.20;0.10;;;;;;;5.84;92.15;100653.53;5035831;28;20870;-49
2022/02/01 09:20:34;;;;;;;0.20;0.10;;;;;;;5.76;92.34;100660.59;5036139;28;20471;-49
2022/02/01 09:23:02;;;;;;;0.20;0.10;;;;;;;5.78;91.97;100653.56;5036472;28;20471;-49
2022/02/01 09:25:29;;;;;;;0.20;0.10;;;;;;;5.87;91.06;100654.38;5036429;28;20451;-50
2022/02/01 09:27:55;;;;;;;0.20;0.10;;;;;;;5.79;91.48;100663.22;5036212;28;21002;-48
2022/02/01 09:30:22;;;;;;;0.20;0.10;;;;;;;5.69;91.65;100678.19;5036249;28;20523;-50
2022/02/01 09:32:52;;;;;;;0.20;0.10;;;;;;;5.49;92.62;100672.97;5036111;28;20944;-49
2022/02/01 09:35:18;;;;;;;0.20;0.10;;;;;;;5.68;92.97;100659.72;5036431;28;20832;-49
2022/02/01 09:37:45;;;;;;;0.20;0.10;;;;;;;5.83;91.88;100660.56;5036405;28;20451;-49
2022/02/01 09:40:32;;;;;;;0.20;0.10;;;;;;;5.79;92.20;100653.56;5036184;28;20471;-49
2022/02/01 09:42:59;;;;;;;0.20;0.10;;;;;;;5.82;91.96;100642.97;5036159;28;20490;-49
2022/02/01 09:45:27;;;;;;;0.20;0.10;;;;;;;5.92;91.40;100651.78;5022885;28;20536;-48
2022/02/01 09:48:04;;;;;;;0.20;0.17;;;;;;;5.85;92.17;100644.72;5020126;28;20447;-48
2022/02/01 09:50:30;;;;;;;0.20;0.10;;;;;;;5.77;92.07;100641.25;5035524;28;20604;-52
2022/02/01 09:52:57;;;;;;;0.20;0.10;;;;;;;5.80;93.48;100647.38;5030537;28;20455;-49
2022/02/01 09:55:24;;;;;;;0.20;0.10;;;;;;;5.56;93.70;100644.81;5035637;28;20451;-49
2022/02/01 09:57:51;;;;;;;0.20;0.10;;;;;;;5.61;93.77;100650.94;5035860;28;20451;-50
2022/02/01 10:00:21;;;;;;;0.20;0.20;;;;;;;5.48;94.45;100643.94;5036619;28;20471;-49
2022/02/01 10:03:06;;;;;;;0.20;0.10;;;;;;;5.50;94.61;100639.56;5035879;28;20482;-49
2022/02/01 10:05:35;;;;;;;0.20;0.10;;;;;;;5.38;96.04;100629.94;5036569;28;20455;-48
2022/02/01 10:08:03;;;;;;;0.20;0.10;;;;;;;5.61;96.65;100621.94;5035991;28;20455;-48
2022/02/01 10:10:32;;;;;;;0.20;0.10;;;;;;;5.57;96.59;100615.81;5035739;28;20534;-49
2022/02/01 10:13:14;;;;;;;0.20;0.10;;;;;;;5.45;96.98;100607.94;5035852;28;20448;-49
2022/02/01 10:15:57;;;;;;;0.20;0.10;;;;;;;5.59;99.44;100603.50;5035797;28;20475;-49
2022/02/01 10:18:28;;;;;;;0.20;0.10;;;;;;;5.69;98.77;100592.91;5009774;28;20451;-49
2022/02/01 10:20:55;;;;;;;0.20;0.10;;;;;;;5.69;100.00;100591.16;5035211;28;20490;-48
2022/02/01 10:23:28;;;;;;;0.20;0.10;;;;;;;5.71;99.51;100592.03;5035774;28;20448;-48
2022/02/01 10:26:02;;;;;;;0.20;0.10;;;;;;;5.77;99.66;100581.47;5035184;28;20475;-48
2022/02/01 10:31:36;;;;;;;0.20;0.10;;;;;;;5.74;99.29;100564.75;5035247;28;20464;-49
2022/02/01 10:36:50;;;;;;;0.30;0.20;;;;;;;5.62;100.00;100549.91;5035339;28;20885;-49
2022/02/01 10:39:24;;;;;;;0.20;0.10;;;;;;;5.91;99.57;100542.75;5035079;28;20499;-49
2022/02/01 10:41:59;;;;;;;0.20;0.10;;;;;;;5.85;99.08;100529.53;5034970;28;20494;-49
2022/02/01 10:44:47;;;;;;;0.30;0.30;;;;;;;5.93;99.40;100514.59;5003678;28;20767;-48
2022/02/01 10:47:20;;;;;;;0.20;0.10;;;;;;;5.97;98.75;100506.66;5033051;28;20480;-48
2022/02/01 10:50:14;;;;;;;0.20;0.10;;;;;;;5.94;99.74;100494.34;5035511;28;20495;-51
2022/02/01 10:52:50;;;;;;;0.20;0.10;;;;;;;5.82;99.81;100492.63;5025800;28;20932;-52
2022/02/01 10:55:19;;;;;;;0.20;0.10;;;;;;;5.98;99.24;100482.88;5034763;28;20451;-52
2022/02/01 10:57:46;;;;;;;0.20;0.10;;;;;;;6.04;98.75;100471.44;5034847;28;20957;-52
2022/02/01 11:00:16;;;;;;;0.20;0.10;;;;;;;6.06;98.85;100475.81;5034744;28;20847;-52
2022/02/01 11:02:46;;;;;;;0.20;0.10;;;;;;;6.00;98.18;100460.00;5017207;28;20443;-52
2022/02/01 11:05:18;;;;;;;0.30;0.20;;;;;;;6.12;98.36;100457.28;5034822;28;20448;-52
2022/02/01 11:08:02;;;;;;;0.20;0.10;;;;;;;6.28;97.57;100449.22;5034584;28;20455;-52
2022/02/01 11:10:29;;;;;;;0.20;0.10;;;;;;;6.32;98.53;100440.41;5034212;28;20984;-51
2022/02/01 11:13:07;;;;;;;0.20;0.10;;;;;;;6.47;96.59;100435.88;5034403;28;20494;-52
2022/02/01 11:15:34;;;;;;;0.20;0.20;;;;;;;6.51;96.73;100426.13;5034674;28;20509;-52
2022/02/01 11:18:23;;;;;;;0.20;0.10;;;;;;;6.65;97.49;100413.66;5034412;28;20461;-52
2022/02/01 11:20:51;;;;;;;0.20;0.10;;;;;;;6.31;97.68;100407.00;5034364;28;20443;-51
2022/02/01 11:23:21;;;;;;;0.20;0.10;;;;;;;6.34;97.74;100407.84;5034417;28;20535;-52
2022/02/01 11:25:54;;;;;;;0.20;0.10;;;;;;;6.45;96.92;100400.69;5034126;28;20451;-51
2022/02/01 11:31:07;;;;;;;0.20;0.10;;;;;;;6.24;98.65;100379.75;5034226;28;20964;-52
2022/02/01 11:33:43;;;;;;;0.20;0.20;;;;;;;6.18;97.82;100372.78;5034485;28;20521;-52
2022/02/01 11:36:12;;;;;;;0.20;0.10;;;;;;;6.24;97.76;100356.00;5033982;28;20505;-51
2022/02/01 11:38:55;;;;;;;0.20;0.10;;;;;;;6.31;98.31;100349.78;5033368;28;20447;-51
2022/02/01 11:41:36;;;;;;;0.20;0.10;;;;;;;6.29;98.49;100348.91;5034399;28;20498;-52
2022/02/01 11:44:07;;;;;;;0.20;0.10;;;;;;;6.10;97.36;100344.72;5029197;28;20821;-52
2022/02/01 11:46:34;;;;;;;0.20;0.10;;;;;;;6.15;97.84;100334.97;5026095;28;20459;-52
2022/02/01 11:49:01;;;;;;;0.20;0.10;;;;;;;5.99;99.12;100343.94;5033460;28;21000;-51
2022/02/01 11:51:48;;;;;;;0.20;0.10;;;;;;;6.06;98.99;100327.16;5028320;28;20461;-52
2022/02/01 11:54:23;;;;;;;0.20;0.20;;;;;;;6.11;99.03;100328.00;5033794;28;20482;-52
2022/02/01 11:56:50;;;;;;;0.20;0.10;;;;;;;6.13;98.73;100319.16;5033836;28;20447;-51
2022/02/01 11:59:26;;;;;;;0.20;0.10;;;;;;;5.99;99.00;100318.41;5033548;28;20890;-51
2022/02/01 12:02:06;;;;;;;0.20;0.10;;;;;;;6.15;98.05;100330.56;5033490;28;20479;-52
2022/02/01 12:04:42;;;;;;;0.20;0.10;;;;;;;6.24;98.92;100334.91;5034601;28;20455;-51
2022/02/01 12:07:09;;;;;;;0.20;0.10;;;;;;;6.20;100.00;100341.09;5035155;28;20440;-52
2022/02/01 12:09:40;;;;;;;0.20;0.10;;;;;;;6.06;100.00;100332.44;5034933;28;20527;-52
2022/02/01 12:12:07;;;;;;;0.20;0.10;;;;;;;6.03;100.00;100325.44;5035005;28;20450;-52
2022/02/01 12:14:34;;;;;;;0.20;0.10;;;;;;;5.90;100.00;100321.16;5033536;28;20879;-52
2022/02/01 12:17:01;;;;;;;0.20;0.10;;;;;;;5.93;100.00;100329.06;5037291;28;20483;-52
2022/02/01 12:19:33;;;;;;;0.20;0.10;;;;;;;6.01;100.00;100324.56;5033064;28;20467;-52
2022/02/01 12:22:31;;;;;;;0.30;0.20;;;;;;;6.16;100.00;100312.97;5033095;28;20458;-52
2022/02/01 12:25:04;;;;;;;0.20;0.10;;;;;;;6.09;99.91;100298.13;5008627;28;20939;-52
2022/02/01 12:27:39;;;;;;;0.20;0.10;;;;;;;6.04;100.00;100284.97;5033033;28;20451;-51
2022/02/01 12:30:08;;;;;;;0.20;0.10;;;;;;;6.08;100.00;100285.81;5032826;28;20549;-51
2022/02/01 12:32:36;;;;;;;0.20;0.10;;;;;;;6.08;100.00;100285.81;5032646;28;20447;-52
2022/02/01 12:35:04;;;;;;;0.20;0.10;;;;;;;5.87;100.00;100282.44;5032777;28;21031;-52
2022/02/01 12:37:31;;;;;;;0.20;0.10;;;;;;;5.79;100.00;100279.03;5032876;28;20452;-52
2022/02/01 12:40:09;;;;;;;0.20;0.10;;;;;;;5.90;100.00;100276.31;5032950;28;20467;-52
2022/02/01 12:42:49;;;;;;;0.20;0.10;;;;;;;5.78;100.00;100272.00;5032676;28;20964;-52
2022/02/01 12:48:04;;;;;;;0.20;0.10;;;;;;;5.83;100.00;100264.03;5032816;28;20444;-52
2022/02/01 12:50:32;;;;;;;0.20;0.10;;;;;;;5.76;100.00;100267.63;5032128;28;20487;-51
2022/02/01 12:53:03;;;;;;;0.20;0.10;;;;;;;5.76;100.00;100251.81;5027150;28;20466;-51
2022/02/01 12:55:30;;;;;;;0.20;0.10;;;;;;;5.82;100.00;100257.03;5032368;28;20440;-52
2022/02/01 12:58:16;;;;;;;0.20;0.10;;;;;;;5.78;100.00;100239.47;5032282;28;20490;-52
2022/02/01 13:00:50;;;;;;;0.20;0.10;;;;;;;5.70;100.00;100242.19;5032592;28;20443;-52
2022/02/01 13:03:17;;;;;;;0.20;0.10;;;;;;;5.86;100.00;100235.00;5032319;28;20455;-51
2022/02/01 13:05:44;;;;;;;0.27;0.20;;;;;;;5.84;100.00;100228.84;5032257;28;20452;-51
2022/02/01 13:16:49;;;;;;;0.20;0.10;;;;;;;5.71;100.00;100212.28;5010564;28;20487;-52
2022/02/01 13:22:09;;;;;;;0.20;0.10;;;;;;;5.53;100.00;100176.44;5032261;28;20877;-51
2022/02/01 13:24:35;;;;;;;0.20;0.10;;;;;;;5.72;100.00;100163.94;5032373;28;20473;-52
2022/02/01 13:27:16;;;;;;;0.20;0.10;;;;;;;5.54;100.00;100166.78;5032423;28;20447;-52
2022/02/01 13:29:42;;;;;;;0.20;0.10;;;;;;;5.55;100.00;100160.59;5033065;28;20576;-50
2022/02/01 13:32:09;;;;;;;0.20;0.10;;;;;;;5.44;100.00;100139.63;5014812;28;20566;-50
2022/02/01 13:34:36;;;;;;;0.20;0.13;;;;;;;5.53;100.00;100155.34;5032148;28;20455;-50
2022/02/01 13:37:05;;;;;;;0.20;0.10;;;;;;;5.61;100.00;100174.59;5034784;28;20456;-51